KDWU

Ashland Regional Airport

Ashland, Kentucky, USA
METAR KDWU 191856Z AUTO 00000KT 10SM CLR 29/22 A3000 RMK AO2 SLP153 T02940222 PNO $
Observed Flight Rules
Sep-19 @ 18:56 UTC (30 minutes ago) Visual Flight Rules
Visibility Clouds
10 miles
  • Clear skies
Temperatures Readings
Current 29°C / 84°F
Dewpoint 22°C / 72°F
Humidity 66%
Altimeter 30" Hg
Pressure 1015.3 hPa
Elevation 166
METAR KDWU 191856Z AUTO 00000KT 10SM CLR 29/22 A3000 RMK AO2 SLP153 T02940222 PNO $
Observed Flight Rules
Sep-19 @ 18:56 UTC
(30 minutes ago)
VFR
Clouds
  • Clear skies
Temperature Dewpoint
29°C / 84°F 22°C / 72°F
Humidity Altimeter Pressure
66% 30" Hg 1015.3 hPa